createdAt,value
2022-11-22T00:00:54.762Z,8.50
2022-11-22T00:03:23.080Z,9.23
2022-11-22T00:05:52.447Z,9.27
2022-11-22T00:08:20.431Z,9.17
2022-11-22T00:10:49.761Z,8.67
2022-11-22T00:13:17.612Z,8.80
2022-11-22T00:15:45.652Z,9.07
2022-11-22T00:18:13.369Z,7.73
2022-11-22T00:20:41.080Z,8.37
2022-11-22T00:23:10.168Z,7.90
2022-11-22T00:25:37.900Z,7.80
2022-11-22T00:28:05.761Z,6.90
2022-11-22T00:30:33.467Z,7.93
2022-11-22T00:33:01.453Z,7.63
2022-11-22T00:35:29.162Z,7.73
2022-11-22T00:37:56.937Z,8.33
2022-11-22T00:40:26.105Z,7.73
2022-11-22T00:42:53.826Z,7.70
2022-11-22T00:45:21.535Z,26.27
2022-11-22T00:47:49.290Z,11.93
2022-11-22T00:50:17.650Z,11.23
2022-11-22T00:52:45.413Z,8.37
2022-11-22T00:55:13.126Z,8.50
2022-11-22T00:57:42.272Z,8.57
2022-11-22T01:00:11.164Z,7.73
2022-11-22T01:02:38.943Z,12.87
2022-11-22T01:05:07.509Z,12.40
2022-11-22T01:07:35.387Z,16.03
2022-11-22T01:10:03.320Z,13.77
2022-11-22T01:12:31.082Z,12.57
2022-11-22T01:15:00.380Z,11.73
2022-11-22T01:17:28.129Z,10.27
2022-11-22T01:19:55.828Z,12.30
2022-11-22T01:22:23.572Z,11.80
2022-11-22T01:24:51.321Z,9.67
2022-11-22T01:27:19.024Z,10.77
2022-11-22T01:29:46.955Z,9.87
2022-11-22T01:32:16.071Z,9.93
2022-11-22T01:34:43.877Z,8.77
2022-11-22T01:37:11.572Z,8.63
2022-11-22T01:39:39.337Z,8.40
2022-11-22T01:42:07.148Z,7.43
2022-11-22T01:44:35.048Z,7.47
2022-11-22T01:47:08.149Z,7.73
2022-11-22T01:49:41.812Z,9.23
2022-11-22T01:52:14.008Z,7.73
2022-11-22T01:54:46.195Z,7.10
2022-11-22T01:57:18.504Z,8.00
2022-11-22T01:59:51.964Z,10.00
2022-11-22T02:02:19.833Z,13.17
2022-11-22T02:04:50.774Z,13.93
2022-11-22T02:07:22.601Z,11.90
2022-11-22T02:09:53.255Z,17.23
2022-11-22T02:12:25.587Z,18.10
2022-11-22T02:14:54.495Z,13.17
2022-11-22T02:17:22.345Z,13.07
2022-11-22T02:19:52.767Z,10.77
2022-11-22T02:22:32.051Z,23.53
2022-11-22T02:25:08.528Z,29.60
2022-11-22T02:27:38.026Z,9.60
2022-11-22T02:30:06.760Z,10.63
2022-11-22T02:32:34.498Z,11.30
2022-11-22T02:35:02.392Z,10.37
2022-11-22T02:37:33.780Z,10.47
2022-11-22T02:40:08.786Z,10.07
2022-11-22T02:42:38.058Z,13.03
2022-11-22T02:45:06.408Z,8.97
2022-11-22T02:47:34.145Z,8.77
2022-11-22T02:50:01.877Z,9.23
2022-11-22T02:52:29.581Z,8.10
2022-11-22T02:54:57.351Z,9.93
2022-11-22T02:57:25.184Z,8.43
2022-11-22T02:59:54.260Z,9.97
2022-11-22T03:02:21.976Z,10.30
2022-11-22T03:04:49.666Z,10.17
2022-11-22T03:07:18.334Z,25.60
2022-11-22T03:09:46.187Z,14.10
2022-11-22T03:12:13.913Z,10.13
2022-11-22T03:14:42.781Z,40.23
2022-11-22T03:17:11.903Z,13.93
2022-11-22T03:19:39.649Z,9.77
2022-11-22T03:22:07.360Z,9.50
2022-11-22T03:24:35.112Z,9.47
2022-11-22T03:27:02.892Z,9.67
2022-11-22T03:29:30.779Z,23.27
2022-11-22T03:31:58.712Z,12.57
2022-11-22T03:34:27.833Z,11.27
2022-11-22T03:36:55.537Z,9.13
2022-11-22T03:39:23.246Z,9.47
2022-11-22T03:41:50.980Z,9.23
2022-11-22T03:44:18.695Z,8.40
2022-11-22T03:46:46.620Z,9.97
2022-11-22T03:49:14.484Z,9.73
2022-11-22T03:51:43.746Z,9.00
2022-11-22T03:54:11.505Z,8.73
2022-11-22T03:56:39.237Z,8.90
2022-11-22T03:59:06.959Z,9.27
2022-11-22T04:01:34.755Z,9.67
2022-11-22T04:04:02.754Z,9.47
2022-11-22T04:06:30.483Z,9.10
2022-11-22T04:08:59.602Z,9.87
2022-11-22T04:11:27.380Z,9.43
2022-11-22T04:14:12.644Z,9.50
2022-11-22T04:16:40.572Z,10.50
2022-11-22T04:19:08.644Z,9.60
2022-11-22T04:21:35.470Z,9.23
2022-11-22T04:24:24.055Z,9.40
2022-11-22T04:26:52.153Z,9.23
2022-11-22T04:29:21.072Z,8.50
2022-11-22T04:32:06.843Z,8.33
2022-11-22T04:34:34.995Z,8.70
2022-11-22T04:37:03.669Z,8.47
2022-11-22T04:39:33.012Z,8.90
2022-11-22T04:42:18.328Z,8.77
2022-11-22T04:44:47.142Z,9.07
2022-11-22T04:47:38.811Z,8.80
2022-11-22T04:50:29.044Z,8.87
2022-11-22T04:52:57.506Z,9.47
2022-11-22T04:55:26.833Z,9.43
2022-11-22T04:57:59.754Z,9.27
2022-11-22T05:00:28.713Z,9.70
2022-11-22T05:02:56.573Z,9.73
2022-11-22T05:05:24.922Z,9.30
2022-11-22T05:07:52.664Z,9.20
2022-11-22T05:10:26.121Z,9.00
2022-11-22T05:12:56.278Z,8.87
2022-11-22T05:15:24.063Z,10.10
2022-11-22T05:17:51.794Z,8.67
2022-11-22T05:20:19.587Z,9.10
2022-11-22T05:23:05.091Z,8.07
2022-11-22T05:25:32.801Z,8.77
2022-11-22T05:28:01.898Z,9.30
2022-11-22T05:30:29.665Z,8.43
2022-11-22T05:32:57.537Z,8.93
2022-11-22T05:35:25.281Z,8.60
2022-11-22T05:37:53.041Z,9.43
2022-11-22T05:40:20.801Z,9.70
2022-11-22T05:42:48.515Z,11.53
2022-11-22T05:45:17.915Z,15.93
2022-11-22T05:47:46.355Z,16.90
2022-11-22T05:50:14.572Z,15.20
2022-11-22T05:52:42.282Z,15.83
2022-11-22T05:55:10.352Z,17.30
2022-11-22T05:57:38.148Z,18.27
2022-11-22T06:00:07.170Z,19.17
2022-11-22T06:02:36.296Z,15.80
2022-11-22T06:05:04.200Z,17.40
2022-11-22T06:07:32.009Z,16.70
2022-11-22T06:09:59.797Z,17.27
2022-11-22T06:12:27.553Z,15.73
2022-11-22T06:14:55.293Z,14.10
2022-11-22T06:17:23.023Z,14.40
2022-11-22T06:19:52.195Z,16.03
2022-11-22T06:22:19.883Z,19.03
2022-11-22T06:24:47.601Z,15.20
2022-11-22T06:27:15.340Z,15.87
2022-11-22T06:29:43.636Z,15.20
2022-11-22T06:32:11.366Z,13.57
2022-11-22T06:34:39.049Z,14.47
2022-11-22T06:37:08.159Z,14.00
2022-11-22T06:39:36.394Z,14.83
2022-11-22T06:42:04.124Z,13.83
2022-11-22T06:44:31.844Z,16.57
2022-11-22T06:47:00.002Z,16.77
2022-11-22T06:49:28.422Z,16.30
2022-11-22T06:51:56.915Z,13.97
2022-11-22T06:54:26.464Z,14.83
2022-11-22T06:56:54.625Z,12.13
2022-11-22T06:59:22.809Z,12.83
2022-11-22T07:01:51.202Z,15.90
2022-11-22T07:04:19.599Z,13.90
2022-11-22T07:06:48.846Z,12.43
2022-11-22T07:09:18.062Z,12.30
2022-11-22T07:11:47.691Z,14.57
2022-11-22T07:14:15.963Z,13.53
2022-11-22T07:16:44.172Z,14.40
2022-11-22T07:19:12.196Z,17.93
2022-11-22T07:21:40.327Z,20.50
2022-11-22T07:24:09.612Z,30.57
2022-11-22T07:26:37.893Z,32.77
2022-11-22T07:29:07.563Z,27.63
2022-11-22T07:31:36.207Z,23.47
2022-11-22T07:34:04.568Z,18.60
2022-11-22T07:36:32.767Z,12.40
2022-11-22T07:39:01.101Z,12.20
2022-11-22T07:41:29.037Z,12.97
2022-11-22T07:43:57.090Z,11.93
2022-11-22T07:46:30.023Z,13.27
2022-11-22T07:48:58.679Z,12.57
2022-11-22T07:51:27.395Z,11.33
2022-11-22T07:53:56.042Z,10.77
2022-11-22T07:56:25.167Z,11.70
2022-11-22T07:58:53.414Z,11.87
2022-11-22T08:01:22.444Z,13.57
2022-11-22T08:03:52.079Z,15.73
2022-11-22T08:06:20.276Z,12.43
2022-11-22T08:08:48.510Z,9.43
2022-11-22T08:11:16.770Z,9.93
2022-11-22T08:13:45.165Z,8.90
2022-11-22T08:16:15.550Z,9.10
2022-11-22T08:18:48.195Z,9.83
2022-11-22T08:21:19.406Z,10.40
2022-11-22T08:23:49.093Z,9.63
2022-11-22T08:26:21.223Z,11.50
2022-11-22T08:28:49.473Z,9.60
2022-11-22T08:31:19.878Z,10.20
2022-11-22T08:33:48.572Z,10.53
2022-11-22T08:36:18.104Z,9.90
2022-11-22T08:38:46.837Z,11.20
2022-11-22T08:41:15.331Z,9.53
2022-11-22T08:43:43.456Z,10.30
2022-11-22T08:46:12.025Z,10.30
2022-11-22T08:48:41.510Z,11.47
2022-11-22T08:51:11.708Z,11.07
2022-11-22T08:53:43.331Z,10.53
2022-11-22T08:56:14.002Z,10.67
2022-11-22T08:58:43.020Z,9.93
2022-11-22T09:01:13.166Z,10.50
2022-11-22T09:03:42.206Z,11.17
2022-11-22T09:11:49.316Z,9.63
2022-11-22T09:14:17.214Z,11.33
2022-11-22T09:16:44.976Z,10.47
2022-11-22T09:19:12.716Z,10.93
2022-11-22T09:21:40.473Z,10.03
2022-11-22T09:24:09.733Z,11.17
2022-11-22T09:26:37.460Z,10.40
2022-11-22T09:29:05.213Z,11.13
2022-11-22T09:31:33.304Z,11.27
2022-11-22T09:34:01.007Z,11.90
2022-11-22T09:36:28.819Z,11.83
2022-11-22T09:38:57.222Z,12.03
2022-11-22T09:41:51.824Z,11.00
2022-11-22T09:44:29.288Z,11.10
2022-11-22T09:47:03.930Z,11.43
2022-11-22T09:49:48.036Z,13.00
2022-11-22T09:52:23.671Z,10.00
2022-11-22T09:54:55.381Z,12.07
2022-11-22T09:57:29.497Z,10.17
2022-11-22T10:00:02.887Z,9.63
2022-11-22T10:02:58.710Z,11.00
2022-11-22T10:05:30.511Z,10.33
2022-11-22T10:08:03.113Z,11.33
2022-11-22T10:10:39.161Z,10.43
2022-11-22T10:13:17.774Z,12.60
2022-11-22T10:15:50.118Z,9.73
2022-11-22T10:18:24.782Z,9.70
2022-11-22T10:20:53.672Z,13.63
2022-11-22T10:23:24.144Z,9.33
2022-11-22T10:25:58.733Z,9.57
2022-11-22T10:28:35.342Z,9.40
2022-11-22T10:31:08.935Z,9.70
2022-11-22T10:33:44.732Z,13.70
2022-11-22T10:36:27.805Z,10.60
2022-11-22T10:39:10.680Z,10.27
2022-11-22T10:41:51.304Z,9.10
2022-11-22T10:44:31.929Z,8.90
2022-11-22T10:47:06.508Z,9.93
2022-11-22T10:49:46.781Z,10.63
2022-11-22T10:52:23.160Z,9.03
2022-11-22T10:55:03.392Z,9.80
2022-11-22T10:57:38.200Z,9.83
2022-11-22T11:00:21.240Z,10.73
2022-11-22T11:03:09.348Z,9.67
2022-11-22T11:06:15.194Z,9.27
2022-11-22T11:09:12.139Z,8.50
2022-11-22T11:11:28.209Z,11.13
2022-11-22T11:14:02.077Z,8.67
2022-11-22T11:16:36.855Z,8.87
2022-11-22T11:19:16.473Z,9.17
2022-11-22T11:21:44.416Z,9.53
2022-11-22T11:24:15.365Z,9.10
2022-11-22T11:26:44.699Z,8.93
2022-11-22T11:29:37.705Z,9.63
2022-11-22T11:32:11.112Z,8.73
2022-11-22T11:34:41.481Z,9.47
2022-11-22T11:37:19.549Z,9.43
2022-11-22T11:39:48.434Z,9.17
2022-11-22T11:42:28.220Z,8.53
2022-11-22T11:44:56.294Z,9.30
2022-11-22T11:47:35.540Z,8.80
2022-11-22T11:50:03.310Z,8.20
2022-11-22T11:52:31.660Z,9.10
2022-11-22T11:55:02.001Z,8.80
2022-11-22T11:57:31.694Z,9.07
2022-11-22T12:00:01.729Z,10.03
2022-11-22T12:02:37.057Z,9.07
2022-11-22T12:05:08.015Z,8.37
2022-11-22T12:07:44.076Z,8.70
2022-11-22T12:10:34.567Z,8.17
2022-11-22T12:13:09.225Z,8.97
2022-11-22T12:15:47.958Z,8.50
2022-11-22T12:18:34.211Z,9.43
2022-11-22T12:21:12.870Z,9.63
2022-11-22T12:23:50.878Z,9.53
2022-11-22T12:26:19.490Z,9.77
2022-11-22T12:28:48.109Z,9.70
2022-11-22T12:31:27.581Z,9.47
2022-11-22T12:33:59.629Z,9.00
2022-11-22T12:36:32.954Z,9.90
2022-11-22T12:39:04.222Z,9.73
2022-11-22T12:41:34.636Z,10.23
2022-11-22T12:44:05.978Z,8.97
2022-11-22T12:46:40.199Z,8.73
2022-11-22T12:49:16.501Z,10.27
2022-11-22T12:51:50.388Z,9.37
2022-11-22T12:54:22.158Z,9.37
2022-11-22T12:56:52.899Z,8.80
2022-11-22T12:59:30.447Z,8.67
2022-11-22T13:02:06.683Z,9.07
2022-11-22T13:04:46.994Z,9.63
2022-11-22T13:07:19.871Z,8.90
2022-11-22T13:09:53.126Z,8.60
2022-11-22T13:12:26.123Z,9.33
2022-11-22T13:14:55.994Z,8.93
2022-11-22T13:17:25.614Z,8.73
2022-11-22T13:19:58.707Z,9.13
2022-11-22T13:22:32.842Z,8.30
2022-11-22T13:25:12.193Z,8.47
2022-11-22T13:27:44.382Z,7.93
2022-11-22T13:30:19.994Z,8.67
2022-11-22T13:32:52.756Z,8.63
2022-11-22T13:35:28.965Z,8.87
2022-11-22T13:38:01.336Z,9.00
2022-11-22T13:40:31.057Z,8.70
2022-11-22T13:43:32.135Z,9.13
2022-11-22T13:46:01.726Z,8.53
2022-11-22T13:49:07.542Z,9.23
2022-11-22T13:51:54.506Z,8.57
2022-11-22T13:54:57.363Z,8.70
2022-11-22T13:57:43.368Z,10.47
2022-11-22T14:00:48.356Z,8.37
2022-11-22T14:03:37.086Z,9.33
2022-11-22T14:06:26.001Z,8.90
2022-11-22T14:09:22.888Z,8.83
2022-11-22T14:12:04.278Z,10.83
2022-11-22T14:14:39.160Z,9.63
2022-11-22T14:17:19.624Z,9.60
2022-11-22T14:20:02.088Z,9.73
2022-11-22T14:22:43.858Z,9.13
2022-11-22T14:25:42.339Z,9.97
2022-11-22T14:28:24.568Z,11.10
2022-11-22T14:30:53.640Z,9.53
2022-11-22T14:33:23.920Z,8.97
2022-11-22T14:36:16.588Z,10.73
2022-11-22T14:38:44.870Z,9.80
2022-11-22T14:41:45.185Z,9.67
2022-11-22T14:44:18.249Z,12.20
2022-11-22T14:46:53.873Z,11.17
2022-11-22T14:49:31.925Z,9.10
2022-11-22T14:52:00.643Z,9.93
2022-11-22T14:54:33.496Z,9.87
2022-11-22T14:57:06.531Z,10.03
2022-11-22T14:59:57.169Z,10.57
2022-11-22T15:03:12.384Z,12.57
2022-11-22T15:09:19.920Z,14.03
2022-11-22T15:09:21.960Z,10.00
2022-11-22T15:12:11.044Z,10.43
2022-11-22T15:59:08.907Z,13.37
2022-11-22T16:01:39.970Z,11.77
2022-11-22T16:04:21.647Z,11.80
2022-11-22T16:06:50.330Z,13.63
2022-11-22T16:09:26.529Z,17.37
2022-11-22T16:12:01.110Z,12.53
2022-11-22T16:14:43.507Z,12.50
2022-11-22T16:17:29.301Z,12.53
2022-11-22T16:20:33.811Z,12.40
2022-11-22T16:23:06.343Z,12.77
2022-11-22T16:25:36.151Z,11.90
2022-11-22T16:28:19.999Z,12.90
2022-11-22T16:30:48.169Z,13.27
2022-11-22T16:33:15.910Z,13.60
2022-11-22T16:35:44.953Z,14.17
2022-11-22T16:38:12.720Z,13.50
2022-11-22T16:40:43.844Z,15.33
2022-11-22T16:43:16.251Z,14.47
2022-11-22T16:45:44.069Z,14.57
2022-11-22T16:48:31.178Z,14.30
2022-11-22T16:51:07.848Z,13.60
2022-11-22T16:53:41.083Z,20.87
2022-11-22T16:56:10.327Z,16.10
2022-11-22T16:58:38.046Z,16.50
2022-11-22T17:01:06.111Z,16.40
2022-11-22T17:03:37.863Z,15.17
2022-11-22T17:06:07.346Z,14.53
2022-11-22T17:08:35.072Z,15.87
2022-11-22T17:11:02.982Z,15.63
2022-11-22T17:13:30.666Z,17.00
2022-11-22T17:15:58.382Z,16.37
2022-11-22T17:18:26.136Z,13.70
2022-11-22T17:20:54.192Z,17.53
2022-11-22T17:23:29.459Z,15.70
2022-11-22T17:25:57.222Z,16.47
2022-11-22T17:28:25.026Z,19.30
2022-11-22T17:30:52.792Z,16.50
2022-11-22T17:33:20.559Z,15.83
2022-11-22T17:35:48.373Z,17.70
2022-11-22T17:38:16.116Z,15.70
2022-11-22T17:40:45.380Z,16.10
2022-11-22T17:43:13.495Z,16.60
2022-11-22T17:45:43.470Z,17.23
2022-11-22T17:48:11.463Z,14.77
2022-11-22T17:50:39.648Z,13.97
2022-11-22T17:53:07.466Z,15.27
2022-11-22T17:56:08.556Z,18.30
2022-11-22T17:58:24.286Z,17.03
2022-11-22T18:00:51.986Z,16.93
2022-11-22T18:03:19.842Z,17.13
2022-11-22T18:05:48.012Z,17.87
2022-11-22T18:08:15.764Z,17.33
2022-11-22T18:10:43.504Z,18.37
2022-11-22T18:13:21.226Z,19.17
2022-11-22T18:15:52.984Z,13.97
2022-11-22T18:18:48.912Z,15.47
2022-11-22T18:21:14.079Z,17.00
2022-11-22T18:23:45.140Z,16.60
2022-11-22T18:31:52.638Z,13.00
2022-11-22T18:34:20.831Z,13.33
2022-11-22T18:37:04.701Z,11.97
2022-11-22T18:39:35.844Z,12.53
2022-11-22T18:42:04.644Z,12.60
2022-11-22T18:44:32.359Z,13.13
2022-11-22T18:47:01.851Z,13.23
2022-11-22T18:49:30.134Z,13.20
2022-11-22T18:51:58.233Z,13.00
2022-11-22T18:54:25.972Z,12.90
2022-11-22T18:56:53.985Z,13.43
2022-11-22T18:59:21.739Z,14.13
2022-11-22T19:01:49.743Z,14.53
2022-11-22T19:04:19.237Z,13.63
2022-11-22T19:06:47.141Z,13.20
2022-11-22T19:09:14.980Z,13.90
2022-11-22T19:11:42.678Z,14.90
2022-11-22T19:14:10.430Z,14.90
2022-11-22T19:16:38.250Z,14.07
2022-11-22T19:19:05.934Z,18.97
2022-11-22T19:21:35.051Z,15.17
2022-11-22T19:24:03.035Z,15.87
2022-11-22T19:26:30.999Z,16.27
2022-11-22T19:29:02.432Z,14.90
2022-11-22T19:31:31.315Z,15.07
2022-11-22T19:34:00.389Z,14.80
2022-11-22T19:36:36.437Z,16.17
2022-11-22T19:39:06.888Z,15.37
2022-11-22T19:41:34.964Z,16.03
2022-11-22T19:44:03.059Z,16.47
2022-11-22T19:46:31.619Z,18.27
2022-11-22T19:49:01.341Z,19.90
2022-11-22T19:51:30.816Z,18.50
2022-11-22T19:54:00.386Z,19.43
2022-11-22T19:56:31.564Z,16.47
2022-11-22T19:59:01.398Z,17.03
2022-11-22T20:01:31.533Z,16.07
2022-11-22T20:04:03.400Z,16.87
2022-11-22T20:06:32.299Z,16.00
2022-11-22T20:09:04.927Z,17.70
2022-11-22T20:11:34.186Z,18.87
2022-11-22T20:14:02.016Z,19.63
2022-11-22T20:16:31.368Z,16.93
2022-11-22T20:19:01.319Z,19.67
2022-11-22T20:21:30.954Z,17.77
2022-11-22T20:24:00.368Z,19.03
2022-11-22T20:26:29.299Z,18.17
2022-11-22T20:29:00.301Z,16.47
2022-11-22T20:31:31.121Z,17.30
2022-11-22T20:34:00.756Z,18.60
2022-11-22T20:36:30.021Z,18.60
2022-11-22T20:38:58.517Z,17.73
2022-11-22T20:41:28.407Z,18.37
2022-11-22T20:43:57.862Z,19.27
2022-11-22T20:46:27.086Z,17.40
2022-11-22T20:48:57.751Z,17.87
2022-11-22T20:51:27.449Z,17.63
2022-11-22T20:53:55.787Z,17.40
2022-11-22T20:56:24.057Z,19.20
2022-11-22T20:58:52.513Z,17.73
2022-11-22T21:01:23.571Z,17.57
2022-11-22T21:03:51.644Z,17.33
2022-11-22T21:06:21.003Z,18.40
2022-11-22T21:08:48.996Z,19.03
2022-11-22T21:11:18.923Z,17.23
2022-11-22T21:13:47.333Z,15.50
2022-11-22T21:16:25.049Z,19.00
2022-11-22T21:18:55.684Z,19.67
2022-11-22T21:21:25.008Z,19.33
2022-11-22T21:23:54.093Z,19.73
2022-11-22T21:26:23.116Z,17.50
2022-11-22T21:28:51.483Z,18.83
2022-11-22T21:31:20.120Z,18.93
2022-11-22T21:33:48.598Z,19.60
2022-11-22T21:36:18.731Z,18.77
2022-11-22T21:38:46.555Z,18.70
2022-11-22T21:41:38.720Z,19.33
2022-11-22T21:44:04.117Z,20.87
2022-11-22T21:46:31.827Z,17.60
2022-11-22T21:48:59.582Z,21.57
2022-11-22T21:51:28.659Z,19.63
2022-11-22T21:53:59.882Z,17.67
2022-11-22T21:56:28.060Z,20.43
2022-11-22T21:58:55.849Z,18.97
2022-11-22T22:01:24.217Z,20.50
2022-11-22T22:03:52.396Z,19.77
2022-11-22T22:06:20.833Z,22.67
2022-11-22T22:08:49.893Z,20.73
2022-11-22T22:11:17.938Z,20.47
2022-11-22T22:13:45.656Z,19.43
2022-11-22T22:16:19.506Z,18.10
2022-11-22T22:18:47.498Z,20.33
2022-11-22T22:21:16.081Z,22.00
2022-11-22T22:23:44.812Z,18.57
2022-11-22T22:26:15.674Z,17.37
2022-11-22T22:28:45.047Z,19.10
2022-11-22T22:31:16.768Z,20.97
2022-11-22T22:33:45.472Z,19.43
2022-11-22T22:36:13.657Z,17.33
2022-11-22T22:38:41.681Z,17.20
2022-11-22T22:41:13.886Z,20.43
2022-11-22T22:43:43.136Z,19.60
2022-11-22T22:46:13.429Z,20.27
2022-11-22T22:48:41.829Z,21.37
2022-11-22T22:51:13.565Z,18.30
2022-11-22T22:53:41.537Z,18.63
2022-11-22T22:56:10.376Z,17.97
2022-11-22T22:58:39.988Z,19.00
2022-11-22T23:01:09.306Z,18.53
2022-11-22T23:03:37.995Z,16.60
2022-11-22T23:06:07.468Z,18.13
2022-11-22T23:08:35.488Z,19.77
2022-11-22T23:11:04.745Z,17.77
2022-11-22T23:13:32.447Z,18.33
2022-11-22T23:16:01.590Z,20.23
2022-11-22T23:18:29.555Z,21.63
2022-11-22T23:21:00.497Z,16.77
2022-11-22T23:23:28.248Z,22.80
2022-11-22T23:25:56.291Z,24.43
2022-11-22T23:28:23.990Z,22.13
2022-11-22T23:30:51.684Z,21.37
2022-11-22T23:33:20.763Z,18.47
2022-11-22T23:35:48.439Z,21.83
2022-11-22T23:38:16.184Z,22.27
2022-11-22T23:40:43.878Z,19.60
2022-11-22T23:43:11.663Z,19.00
2022-11-22T23:45:39.439Z,18.73
2022-11-22T23:48:07.731Z,19.27
2022-11-22T23:50:37.554Z,18.67
2022-11-22T23:53:05.467Z,23.57
2022-11-22T23:55:33.291Z,20.47
2022-11-22T23:58:01.432Z,19.33
